Time;durP1;ratioP1;P1;durP2;ratioP2;P2;SDS_P1;SDS_P2;PMS_P1;PMS_P2;Temp;Humidity;BMP_temperature;BMP_pressure;BME280_temperature;BME280_humidity;BME280_pressure;Samples;Min_cycle;Max_cycle;Signal;HPM_P1;HPM_P2
2024/01/31 00:02:02;;;;;;;24.67;9.95;;;;;;;5.83;100.00;103400.06;5084692;28;20028;-78
2024/01/31 00:04:27;;;;;;;25.95;10.32;;;;;;;5.79;100.00;103398.19;5086858;28;20519;-78
2024/01/31 00:06:53;;;;;;;20.38;9.85;;;;;;;5.80;100.00;103401.66;5085854;28;20344;-78
2024/01/31 00:09:18;;;;;;;24.35;10.13;;;;;;;5.77;100.00;103396.38;5075409;28;20108;-78
2024/01/31 00:11:43;;;;;;;22.98;8.88;;;;;;;5.78;100.00;103399.00;5083356;28;20024;-78
2024/01/31 00:14:09;;;;;;;22.42;9.90;;;;;;;5.76;100.00;103392.91;5084721;28;20040;-78
2024/01/31 00:16:35;;;;;;;23.13;9.30;;;;;;;5.74;100.00;103398.84;5086481;28;20371;-78
2024/01/31 00:19:01;;;;;;;22.55;9.70;;;;;;;5.75;100.00;103406.66;5085537;28;20023;-78
2024/01/31 00:21:27;;;;;;;22.60;9.15;;;;;;;5.80;100.00;103412.00;5085798;28;20047;-78
2024/01/31 00:23:52;;;;;;;17.92;8.48;;;;;;;5.79;100.00;103415.44;5086226;28;20016;-78
2024/01/31 00:26:17;;;;;;;18.27;8.55;;;;;;;5.73;100.00;103421.25;5085089;28;20056;-79
2024/01/31 00:28:43;;;;;;;16.52;7.85;;;;;;;5.69;100.00;103427.16;5085492;28;20059;-78
2024/01/31 00:31:11;;;;;;;14.95;7.25;;;;;;;5.68;100.00;103430.53;5084789;28;20121;-78
2024/01/31 00:33:38;;;;;;;17.23;6.95;;;;;;;5.63;100.00;103429.50;5085301;28;20025;-78
2024/01/31 00:36:03;;;;;;;18.70;7.10;;;;;;;5.61;100.00;103436.31;5085806;28;20480;-78
2024/01/31 00:38:28;;;;;;;15.25;6.88;;;;;;;5.63;100.00;103435.56;5089381;28;20070;-78
2024/01/31 00:40:54;;;;;;;16.55;6.97;;;;;;;5.60;100.00;103427.66;5084914;28;20036;-78
2024/01/31 00:43:19;;;;;;;21.98;6.65;;;;;;;5.63;100.00;103432.09;5084686;28;20028;-78
2024/01/31 00:45:45;;;;;;;17.85;6.68;;;;;;;5.67;100.00;103441.72;5083304;28;20494;-78
2024/01/31 00:48:10;;;;;;;16.50;6.25;;;;;;;5.66;100.00;103442.56;5078729;28;20116;-78
2024/01/31 00:50:36;;;;;;;17.27;6.03;;;;;;;5.64;100.00;103441.59;5083094;28;20028;-78
2024/01/31 00:53:03;;;;;;;13.95;7.10;;;;;;;5.67;100.00;103452.09;5066625;28;20051;-78
2024/01/31 00:55:28;;;;;;;18.52;6.00;;;;;;;5.65;100.00;103440.78;5081729;28;20028;-78
2024/01/31 00:57:54;;;;;;;17.23;6.00;;;;;;;5.62;100.00;103433.81;5077346;28;20016;-78
2024/01/31 01:00:21;;;;;;;19.50;5.90;;;;;;;5.61;100.00;103436.31;5082159;28;20033;-79
2024/01/31 01:02:46;;;;;;;13.48;4.70;;;;;;;5.61;100.00;103451.84;5081600;28;20119;-79
2024/01/31 01:05:12;;;;;;;11.80;4.50;;;;;;;5.49;100.00;103426.34;5088807;28;20486;-78
2024/01/31 01:07:40;;;;;;;18.30;5.22;;;;;;;5.58;100.00;103457.78;5081136;28;20040;-78
2024/01/31 01:10:11;;;;;;;13.32;5.00;;;;;;;5.55;100.00;103457.66;5081036;28;20032;-78
2024/01/31 01:12:37;;;;;;;15.43;4.82;;;;;;;5.57;100.00;103457.72;5088044;28;20174;-78
2024/01/31 01:15:03;;;;;;;13.50;4.45;;;;;;;5.55;100.00;103454.19;5081556;28;20468;-78
2024/01/31 01:17:30;;;;;;;14.20;5.40;;;;;;;5.55;100.00;103457.66;5077302;28;20024;-78
2024/01/31 01:19:55;;;;;;;11.32;4.28;;;;;;;5.55;100.00;103452.47;5081135;28;20384;-78
2024/01/31 01:22:21;;;;;;;13.48;4.72;;;;;;;5.54;100.00;103450.72;5089082;28;20032;-78
2024/01/31 01:24:46;;;;;;;11.60;4.63;;;;;;;5.56;100.00;103455.97;5081641;28;20030;-78
2024/01/31 01:27:11;;;;;;;10.77;4.68;;;;;;;5.55;100.00;103459.38;5090500;28;20110;-78
2024/01/31 01:29:37;;;;;;;13.02;4.75;;;;;;;5.51;100.00;103453.19;5076196;28;20122;-78
2024/01/31 01:32:02;;;;;;;13.23;4.65;;;;;;;5.55;100.00;103456.78;5081711;28;20028;-78
2024/01/31 01:34:28;;;;;;;15.35;4.65;;;;;;;5.53;100.00;103454.16;5080306;28;20100;-78
2024/01/31 01:36:53;;;;;;;14.77;4.43;;;;;;;5.55;100.00;103457.66;5082228;28;20037;-78
2024/01/31 01:39:18;;;;;;;15.18;4.40;;;;;;;5.56;100.00;103458.56;5079022;28;20045;-78
2024/01/31 01:41:48;;;;;;;12.07;4.05;;;;;;;5.54;100.00;103460.19;5075019;28;20031;-78
2024/01/31 01:44:14;;;;;;;12.25;4.25;;;;;;;5.56;100.00;103461.16;5083287;28;20029;-78
2024/01/31 01:46:40;;;;;;;18.38;4.30;;;;;;;5.55;100.00;103462.81;5078443;28;20020;-78
2024/01/31 01:49:06;;;;;;;10.02;4.30;;;;;;;5.49;100.00;103452.22;5086571;28;20448;-78
2024/01/31 01:51:32;;;;;;;12.68;4.93;;;;;;;5.53;100.00;103461.03;5083965;28;20023;-78
2024/01/31 01:53:57;;;;;;;9.63;3.92;;;;;;;5.48;100.00;103449.59;5084247;28;20039;-78
2024/01/31 01:56:23;;;;;;;14.48;4.38;;;;;;;5.50;100.00;103447.97;5084713;28;20409;-78
2024/01/31 01:58:49;;;;;;;14.50;4.28;;;;;;;5.51;100.00;103454.91;5081911;28;20472;-78
2024/01/31 02:01:15;;;;;;;14.15;4.05;;;;;;;5.51;100.00;103460.06;5083770;28;20032;-78
2024/01/31 02:03:41;;;;;;;14.32;4.90;;;;;;;5.45;100.00;103440.00;5085429;28;20037;-78
2024/01/31 02:06:06;;;;;;;10.10;4.10;;;;;;;5.46;100.00;103444.38;5082563;28;20039;-78
2024/01/31 02:08:32;;;;;;;19.88;4.70;;;;;;;5.46;100.00;103449.56;5087236;28;20383;-78
2024/01/31 02:10:57;;;;;;;15.60;4.28;;;;;;;5.44;100.00;103452.91;5078470;28;20031;-78
2024/01/31 02:13:23;;;;;;;12.98;4.30;;;;;;;5.44;100.00;103456.38;5088826;28;20036;-78
2024/01/31 02:15:56;;;;;;;19.27;4.60;;;;;;;5.43;100.00;103446.84;5078611;28;20384;-78
2024/01/31 02:18:23;;;;;;;12.95;4.57;;;;;;;5.44;100.00;103452.91;5068809;28;20107;-78
2024/01/31 02:20:49;;;;;;;10.90;4.20;;;;;;;5.44;100.00;103455.47;5083804;28;20032;-78
2024/01/31 02:23:15;;;;;;;13.40;4.78;;;;;;;5.36;100.00;103435.38;5079713;28;20380;-78
2024/01/31 02:25:40;;;;;;;9.25;4.55;;;;;;;5.44;100.00;103453.78;5084645;28;20526;-78
2024/01/31 02:28:06;;;;;;;15.07;5.00;;;;;;;5.40;100.00;103441.53;5080689;28;20037;-78
2024/01/31 02:30:31;;;;;;;12.40;4.50;;;;;;;5.38;100.00;103444.06;5087493;28;20490;-78
2024/01/31 02:32:56;;;;;;;13.98;4.57;;;;;;;5.37;100.00;103444.88;5079814;28;20074;-78
2024/01/31 02:35:23;;;;;;;17.77;4.60;;;;;;;5.37;100.00;103446.59;5087489;28;20051;-78
2024/01/31 02:37:48;;;;;;;12.63;4.72;;;;;;;5.37;100.00;103451.78;5080359;28;20032;-79
2024/01/31 02:40:14;;;;;;;10.35;4.68;;;;;;;5.36;100.00;103449.97;5083700;28;20035;-78
2024/01/31 02:42:40;;;;;;;15.65;4.93;;;;;;;5.35;100.00;103450.81;5084955;28;20111;-78
2024/01/31 02:45:06;;;;;;;20.23;5.10;;;;;;;5.37;100.00;103451.78;5084339;28;20507;-78
2024/01/31 02:47:33;;;;;;;14.30;5.13;;;;;;;5.39;100.00;103455.28;5083321;28;20050;-78
2024/01/31 02:49:59;;;;;;;15.13;5.65;;;;;;;5.39;100.00;103451.03;5070710;28;20038;-78
2024/01/31 02:52:24;;;;;;;12.10;4.60;;;;;;;5.31;100.00;103439.47;5079020;28;20019;-78
2024/01/31 02:54:51;;;;;;;14.55;4.65;;;;;;;5.30;100.00;103435.13;5074054;28;20032;-78
2024/01/31 02:57:16;;;;;;;11.63;5.13;;;;;;;5.34;100.00;103437.00;5087819;28;20059;-78
2024/01/31 02:59:42;;;;;;;19.13;5.25;;;;;;;5.38;100.00;103449.22;5082396;28;20121;-78
2024/01/31 03:02:07;;;;;;;13.55;5.15;;;;;;;5.36;100.00;103430.19;5080008;28;20025;-78
2024/01/31 03:04:32;;;;;;;20.00;5.25;;;;;;;5.39;100.00;103429.41;5083920;28;20565;-78
2024/01/31 03:06:57;;;;;;;16.17;5.07;;;;;;;5.37;100.00;103431.97;5080921;28;20021;-78
2024/01/31 03:09:23;;;;;;;18.05;5.30;;;;;;;5.38;100.00;103425.94;5082710;28;20028;-78
2024/01/31 03:11:48;;;;;;;15.43;5.68;;;;;;;5.38;100.00;103423.38;5081998;28;20047;-78
2024/01/31 03:14:13;;;;;;;17.80;5.75;;;;;;;5.39;100.00;103408.72;5083060;28;20036;-78
2024/01/31 03:16:39;;;;;;;16.40;6.30;;;;;;;5.35;100.00;103423.25;5079483;28;20550;-78
2024/01/31 03:19:06;;;;;;;18.52;6.55;;;;;;;5.32;100.00;103423.13;5083572;28;20468;-78
2024/01/31 03:21:31;;;;;;;18.40;6.90;;;;;;;5.33;100.00;103424.00;5087535;28;20032;-78
2024/01/31 03:23:56;;;;;;;17.10;6.72;;;;;;;5.35;100.00;103418.06;5085759;28;20037;-78
2024/01/31 03:26:21;;;;;;;19.33;7.30;;;;;;;5.35;100.00;103412.91;5085765;28;20062;-78
2024/01/31 03:28:47;;;;;;;18.98;7.57;;;;;;;5.33;100.00;103409.38;5083363;28;20450;-78
2024/01/31 03:31:12;;;;;;;19.98;8.20;;;;;;;5.31;100.00;103412.72;5084468;28;20036;-78
2024/01/31 03:33:37;;;;;;;24.48;8.10;;;;;;;5.31;100.00;103413.59;5085289;28;20033;-78
2024/01/31 03:36:03;;;;;;;20.42;7.90;;;;;;;5.30;100.00;103408.38;5081848;28;20098;-78
2024/01/31 03:38:28;;;;;;;20.00;7.82;;;;;;;5.29;100.00;103407.47;5090609;28;20483;-78
2024/01/31 03:40:53;;;;;;;17.58;7.75;;;;;;;5.28;100.00;103410.91;5080550;28;20028;-78
2024/01/31 03:43:19;;;;;;;20.40;8.30;;;;;;;5.33;100.00;103403.31;5085122;28;20039;-78
2024/01/31 03:45:44;;;;;;;25.67;8.63;;;;;;;5.32;100.00;103406.72;5084744;28;20433;-78
2024/01/31 03:48:09;;;;;;;25.00;9.65;;;;;;;5.29;100.00;103404.00;5083432;28;20037;-78
2024/01/31 03:50:35;;;;;;;20.38;8.52;;;;;;;5.35;100.00;103407.72;5087713;28;20066;-78
2024/01/31 03:53:00;;;;;;;23.63;9.32;;;;;;;5.34;100.00;103405.97;5080512;28;20039;-78
2024/01/31 03:55:25;;;;;;;23.45;8.95;;;;;;;5.35;100.00;103407.72;5090442;28;20379;-78
2024/01/31 03:57:50;;;;;;;20.08;8.50;;;;;;;5.33;100.00;103399.03;5086677;28;20537;-78
2024/01/31 04:00:16;;;;;;;19.67;8.60;;;;;;;5.33;100.00;103396.44;5089815;28;20032;-78
2024/01/31 04:02:41;;;;;;;18.25;8.90;;;;;;;5.29;100.00;103391.94;5087167;28;20016;-78
2024/01/31 04:05:10;;;;;;;29.80;10.65;;;;;;;5.28;100.00;103395.38;5083160;28;20103;-78
2024/01/31 04:07:36;;;;;;;23.40;10.90;;;;;;;5.22;100.00;103387.38;5084198;28;20036;-78
2024/01/31 04:10:03;;;;;;;25.23;10.80;;;;;;;5.26;100.00;103391.84;5083510;28;20111;-78
2024/01/31 04:12:28;;;;;;;25.67;10.45;;;;;;;5.27;100.00;103388.44;5086438;28;20031;-78
2024/01/31 04:14:54;;;;;;;23.00;11.18;;;;;;;5.26;100.00;103386.66;5085078;28;20036;-78
2024/01/31 04:17:19;;;;;;;24.67;11.07;;;;;;;5.28;100.00;103389.31;5081277;28;20063;-78
2024/01/31 04:19:48;;;;;;;26.40;10.57;;;;;;;5.28;100.00;103387.63;5084346;28;20046;-78
2024/01/31 04:22:16;;;;;;;25.48;11.00;;;;;;;5.25;100.00;103384.91;5080740;28;20020;-78
2024/01/31 04:24:43;;;;;;;22.63;11.55;;;;;;;5.25;100.00;103399.53;5086023;28;20103;-78
2024/01/31 04:27:08;;;;;;;23.33;12.02;;;;;;;5.19;100.00;103389.84;5085200;28;20430;-78
2024/01/31 04:29:33;;;;;;;29.73;12.27;;;;;;;5.23;100.00;103396.91;5086104;28;20020;-78
2024/01/31 04:31:59;;;;;;;26.63;11.95;;;;;;;5.25;100.00;103404.72;5081142;28;20029;-78
2024/01/31 04:34:25;;;;;;;25.58;11.18;;;;;;;5.27;100.00;103409.13;5081162;28;20040;-78
2024/01/31 04:36:50;;;;;;;27.98;11.52;;;;;;;5.26;100.00;103401.31;5086042;28;20054;-78
2024/01/31 04:39:16;;;;;;;30.00;12.40;;;;;;;5.27;100.00;103398.78;5081472;28;20124;-78
2024/01/31 04:41:43;;;;;;;30.85;13.00;;;;;;;5.26;100.00;103394.41;5086271;28;20113;-78
2024/01/31 04:44:08;;;;;;;24.48;12.07;;;;;;;5.19;100.00;103382.06;5084083;28;20024;-79
2024/01/31 04:46:34;;;;;;;27.48;12.93;;;;;;;5.28;100.00;103394.50;5081147;28;20039;-78
2024/01/31 04:49:00;;;;;;;33.28;14.75;;;;;;;5.28;100.00;103390.19;5081527;28;20071;-78
2024/01/31 04:51:26;;;;;;;30.33;13.27;;;;;;;5.24;100.00;103387.44;5084592;28;20435;-78
2024/01/31 04:53:51;;;;;;;31.27;13.02;;;;;;;5.24;100.00;103390.03;5084714;28;20372;-78
2024/01/31 04:56:18;;;;;;;27.70;12.82;;;;;;;5.27;100.00;103398.78;5085600;28;20031;-78
2024/01/31 04:58:43;;;;;;;26.15;12.65;;;;;;;5.28;100.00;103394.50;5084668;28;20100;-78
2024/01/31 05:01:08;;;;;;;33.85;13.90;;;;;;;5.27;100.00;103383.28;5084832;28;20463;-78
2024/01/31 05:03:34;;;;;;;29.88;12.30;;;;;;;5.21;100.00;103376.97;5084802;28;20361;-78
2024/01/31 05:05:59;;;;;;;35.08;13.75;;;;;;;5.24;100.00;103387.44;5085637;28;20032;-78
2024/01/31 05:08:28;;;;;;;31.88;13.07;;;;;;;5.21;100.00;103382.16;5086038;28;20025;-79
2024/01/31 05:10:54;;;;;;;29.00;13.20;;;;;;;5.18;100.00;103387.19;5083989;28;20025;-78
2024/01/31 05:13:19;;;;;;;34.22;13.82;;;;;;;5.16;100.00;103385.41;5088530;28;20022;-78
2024/01/31 05:15:44;;;;;;;30.75;13.98;;;;;;;5.19;100.00;103389.84;5081218;28;20103;-78
2024/01/31 05:18:11;;;;;;;31.70;13.90;;;;;;;5.22;100.00;103379.63;5079868;28;20468;-79
2024/01/31 05:20:37;;;;;;;35.22;13.88;;;;;;;5.23;100.00;103380.50;5075902;28;20056;-78
2024/01/31 05:23:02;;;;;;;31.13;13.98;;;;;;;5.25;100.00;103378.84;5083978;28;20488;-79
2024/01/31 05:25:27;;;;;;;32.35;13.93;;;;;;;5.23;100.00;103378.81;5083466;28;20024;-78
2024/01/31 05:27:53;;;;;;;42.72;14.88;;;;;;;5.20;100.00;103370.94;5079849;28;20043;-78
2024/01/31 05:30:18;;;;;;;38.35;15.15;;;;;;;5.19;100.00;103379.50;5086928;28;20039;-78
2024/01/31 05:32:45;;;;;;;29.77;14.27;;;;;;;5.19;100.00;103381.19;5081457;28;20052;-78
2024/01/31 05:35:10;;;;;;;29.08;14.63;;;;;;;5.20;100.00;103385.53;5086973;28;20035;-78
2024/01/31 05:37:35;;;;;;;34.55;14.10;;;;;;;5.20;100.00;103383.88;5081630;28;20028;-78
2024/01/31 05:40:01;;;;;;;32.45;14.20;;;;;;;5.20;100.00;103373.53;5078440;28;20098;-79
2024/01/31 05:42:26;;;;;;;32.13;15.88;;;;;;;5.19;100.00;103383.78;5083826;28;20369;-79
2024/01/31 05:44:53;;;;;;;36.78;15.38;;;;;;;5.23;100.00;103388.25;5084515;28;20036;-78
2024/01/31 05:47:21;;;;;;;29.92;14.70;;;;;;;5.24;100.00;103387.44;5085852;28;20020;-78
2024/01/31 05:49:47;;;;;;;30.42;15.30;;;;;;;5.23;100.00;103389.16;5072885;28;20028;-78
2024/01/31 05:52:12;;;;;;;36.58;15.68;;;;;;;5.23;100.00;103389.16;5088024;28;20463;-78
2024/01/31 05:54:40;;;;;;;29.75;15.15;;;;;;;5.24;100.00;103377.97;5082718;28;20110;-78
2024/01/31 05:57:06;;;;;;;31.92;15.80;;;;;;;5.22;100.00;103384.78;5079384;28;20123;-79
2024/01/31 05:59:32;;;;;;;31.73;16.25;;;;;;;5.21;100.00;103383.03;5087090;28;20120;-78
2024/01/31 06:01:59;;;;;;;36.08;15.70;;;;;;;5.22;100.00;103379.63;5084018;28;20031;-79
2024/01/31 06:04:24;;;;;;;38.25;17.40;;;;;;;5.24;100.00;103380.56;5083819;28;20035;-78
2024/01/31 06:06:49;;;;;;;34.28;16.52;;;;;;;5.22;100.00;103384.78;5082929;28;20031;-78
2024/01/31 06:09:16;;;;;;;34.63;16.85;;;;;;;5.24;100.00;103393.50;5084549;28;20099;-78
2024/01/31 06:11:41;;;;;;;32.97;16.45;;;;;;;5.24;100.00;103397.78;5083377;28;20028;-78
2024/01/31 06:14:07;;;;;;;36.08;16.42;;;;;;;5.20;100.00;103390.72;5072618;28;20385;-78
2024/01/31 06:16:33;;;;;;;34.05;16.35;;;;;;;5.22;100.00;103396.84;5077171;28;20024;-78
2024/01/31 06:19:00;;;;;;;30.75;16.13;;;;;;;5.24;100.00;103388.31;5079353;28;20032;-78
2024/01/31 06:21:25;;;;;;;36.65;17.55;;;;;;;5.21;100.00;103382.16;5085873;28;20054;-78
2024/01/31 06:23:51;;;;;;;33.22;16.73;;;;;;;5.24;100.00;103384.88;5084282;28;20452;-78
2024/01/31 06:26:16;;;;;;;35.92;17.33;;;;;;;5.22;100.00;103365.81;5078705;28;20494;-78
2024/01/31 06:28:42;;;;;;;30.60;16.40;;;;;;;5.24;100.00;103366.75;5080924;28;20039;-78
2024/01/31 06:31:16;;;;;;;36.40;17.75;;;;;;;5.19;100.00;103355.34;5081420;28;20024;-78
2024/01/31 06:33:41;;;;;;;37.05;19.08;;;;;;;5.23;100.00;103364.97;5083215;28;20034;-78
2024/01/31 06:36:07;;;;;;;37.10;17.15;;;;;;;5.20;100.00;103355.41;5076872;28;20024;-78
2024/01/31 06:38:33;;;;;;;36.22;18.02;;;;;;;5.23;100.00;103360.72;5079159;28;20127;-78
2024/01/31 06:40:58;;;;;;;35.22;19.15;;;;;;;5.21;100.00;103353.72;5076911;28;20111;-78
2024/01/31 06:43:24;;;;;;;41.33;19.77;;;;;;;5.18;100.00;103341.53;5082345;28;20037;-78
2024/01/31 06:45:50;;;;;;;34.35;18.88;;;;;;;5.20;100.00;103339.00;5082848;28;20832;-78
2024/01/31 06:48:18;;;;;;;42.97;19.83;;;;;;;5.22;100.00;103334.75;5076533;28;20110;-78
2024/01/31 06:50:43;;;;;;;37.28;19.40;;;;;;;5.19;100.00;103327.75;5068973;28;20082;-78
2024/01/31 06:53:08;;;;;;;34.22;19.95;;;;;;;5.20;100.00;103341.56;5080863;28;20021;-78
2024/01/31 06:55:34;;;;;;;34.20;19.33;;;;;;;5.19;100.00;103342.41;5083122;28;20384;-78
2024/01/31 06:57:59;;;;;;;38.42;19.60;;;;;;;5.16;100.00;103332.81;5086852;28;20078;-78
2024/01/31 07:00:24;;;;;;;44.97;20.55;;;;;;;5.13;100.00;103331.03;5079813;28;20036;-78
2024/01/31 07:02:52;;;;;;;38.92;19.85;;;;;;;5.19;100.00;103337.22;5088303;28;20032;-78
2024/01/31 07:05:18;;;;;;;45.50;19.50;;;;;;;5.16;100.00;103344.03;5080693;28;20107;-78
2024/01/31 07:07:43;;;;;;;42.50;20.63;;;;;;;5.13;100.00;103355.97;5087656;28;20024;-78
2024/01/31 07:10:09;;;;;;;44.08;21.25;;;;;;;5.13;100.00;103369.81;5080093;28;20104;-78
2024/01/31 07:12:35;;;;;;;40.58;20.85;;;;;;;5.13;100.00;103374.97;5087627;28;20044;-78
2024/01/31 07:15:00;;;;;;;38.22;21.60;;;;;;;5.12;100.00;103387.84;5080133;28;20544;-78
2024/01/31 07:17:26;;;;;;;40.30;20.02;;;;;;;5.10;100.00;103386.88;5081707;28;20107;-78
2024/01/31 07:19:51;;;;;;;38.92;19.83;;;;;;;5.15;100.00;103409.53;5082949;28;20378;-78
2024/01/31 07:22:16;;;;;;;45.35;21.17;;;;;;;5.12;100.00;103405.94;5079676;28;20082;-78
2024/01/31 07:24:42;;;;;;;38.63;20.73;;;;;;;5.12;100.00;103413.69;5073438;28;20104;-78
2024/01/31 07:27:07;;;;;;;41.92;20.33;;;;;;;5.18;100.00;103428.59;5082468;28;20494;-78
2024/01/31 07:29:32;;;;;;;44.05;21.10;;;;;;;5.16;100.00;103436.25;5072044;28;20027;-78
2024/01/31 07:31:58;;;;;;;42.25;20.10;;;;;;;5.14;100.00;103431.03;5082448;28;20019;-79
2024/01/31 07:34:23;;;;;;;39.92;20.77;;;;;;;5.21;100.00;103436.47;5078113;28;20036;-78
2024/01/31 07:36:48;;;;;;;43.53;21.15;;;;;;;5.18;100.00;103444.97;5076021;28;20021;-78
2024/01/31 07:39:14;;;;;;;42.17;20.40;;;;;;;5.20;100.00;103437.25;5069592;28;20068;-78
2024/01/31 07:41:40;;;;;;;48.88;22.13;;;;;;;5.15;100.00;103435.38;5072900;28;20071;-78
2024/01/31 07:44:05;;;;;;;45.50;22.00;;;;;;;5.22;100.00;103443.38;5069498;28;20060;-78
2024/01/31 07:46:30;;;;;;;42.63;22.00;;;;;;;5.23;100.00;103448.66;5065846;28;20027;-78
2024/01/31 07:48:56;;;;;;;48.22;22.27;;;;;;;5.22;100.00;103433.94;5074332;28;20033;-78
2024/01/31 07:51:21;;;;;;;46.85;22.08;;;;;;;5.21;100.00;103432.16;5075691;28;20016;-78
2024/01/31 07:53:46;;;;;;;48.63;22.90;;;;;;;5.25;100.00;103441.81;5085376;28;20035;-78
2024/01/31 07:56:12;;;;;;;49.03;22.95;;;;;;;5.26;100.00;103442.69;5075798;28;20039;-78
2024/01/31 07:58:37;;;;;;;43.42;21.27;;;;;;;5.28;100.00;103435.88;5079313;28;20028;-78
2024/01/31 08:01:02;;;;;;;45.10;22.33;;;;;;;5.32;100.00;103443.81;5081408;28;20043;-78
2024/01/31 08:03:28;;;;;;;47.05;23.05;;;;;;;5.32;100.00;103436.06;5082911;28;20558;-79
2024/01/31 08:05:53;;;;;;;49.22;22.30;;;;;;;5.31;100.00;103430.84;5085623;28;20043;-79
2024/01/31 08:08:18;;;;;;;47.92;23.48;;;;;;;5.33;100.00;103435.25;5089095;28;20028;-79
2024/01/31 08:10:44;;;;;;;50.83;23.13;;;;;;;5.33;100.00;103435.25;5083476;28;20024;-79
2024/01/31 08:13:09;;;;;;;46.70;21.45;;;;;;;5.36;100.00;103422.44;5090992;28;20112;-79
2024/01/31 08:15:35;;;;;;;46.95;23.13;;;;;;;5.39;100.00;103426.81;5083251;28;20024;-79
2024/01/31 08:18:01;;;;;;;50.17;23.08;;;;;;;5.36;100.00;103409.50;5087988;28;20020;-78
2024/01/31 08:20:26;;;;;;;48.65;22.25;;;;;;;5.43;100.00;103420.06;5083380;28;20025;-79
2024/01/31 08:22:52;;;;;;;44.47;22.52;;;;;;;5.39;100.00;103429.41;5083326;28;20028;-79
2024/01/31 08:25:17;;;;;;;39.10;20.90;;;;;;;5.45;100.00;103429.66;5088351;28;20028;-79
2024/01/31 08:27:42;;;;;;;45.40;23.10;;;;;;;5.47;100.00;103425.44;5083392;28;20031;-79
2024/01/31 08:30:08;;;;;;;48.88;23.00;;;;;;;5.54;100.00;103429.16;5088663;28;20135;-78
2024/01/31 08:32:34;;;;;;;51.03;22.80;;;;;;;5.54;100.00;103421.38;5082515;28;20028;-79
2024/01/31 08:35:02;;;;;;;47.78;23.42;;;;;;;5.57;100.00;103418.91;5088434;28;20169;-79
2024/01/31 08:37:27;;;;;;;48.47;22.60;;;;;;;5.63;100.00;103420.03;5083234;28;20442;-78
2024/01/31 08:39:52;;;;;;;43.58;23.35;;;;;;;5.70;100.00;103420.25;5085672;28;20032;-78
2024/01/31 08:42:18;;;;;;;49.78;23.27;;;;;;;5.74;100.00;103406.59;5085115;28;20447;-78
2024/01/31 08:44:43;;;;;;;42.53;22.25;;;;;;;5.76;100.00;103399.78;5084747;28;20023;-79
2024/01/31 08:47:08;;;;;;;46.85;23.48;;;;;;;5.78;100.00;103388.66;5085282;28;20119;-79
2024/01/31 08:49:33;;;;;;;45.22;22.80;;;;;;;5.77;100.00;103388.59;5079873;28;20032;-79
2024/01/31 08:51:59;;;;;;;47.20;22.38;;;;;;;5.79;100.00;103380.06;5087369;28;20024;-79
2024/01/31 08:54:25;;;;;;;45.72;22.23;;;;;;;5.90;100.00;103390.81;5084870;28;20123;-79
2024/01/31 08:56:50;;;;;;;44.55;22.17;;;;;;;5.93;100.00;103390.09;5085327;28;20024;-79
2024/01/31 08:59:17;;;;;;;45.47;22.23;;;;;;;5.94;100.00;103382.34;5085142;28;20024;-79
2024/01/31 09:01:46;;;;;;;48.80;23.23;;;;;;;5.98;100.00;103386.81;5084996;28;20040;-79
2024/01/31 09:04:13;;;;;;;50.72;22.83;;;;;;;6.02;100.00;103382.66;5085830;28;20051;-79
2024/01/31 09:06:39;;;;;;;45.42;22.20;;;;;;;6.05;100.00;103375.00;5084589;28;20028;-79
2024/01/31 09:09:06;;;;;;;48.88;22.90;;;;;;;6.02;100.00;103368.00;5085214;28;20400;-79
2024/01/31 09:11:31;;;;;;;50.88;24.08;;;;;;;6.12;100.00;103374.38;5085156;28;20094;-79
2024/01/31 09:13:56;;;;;;;49.90;23.92;;;;;;;6.12;100.00;103368.31;5084213;28;20037;-79
2024/01/31 09:16:22;;;;;;;49.42;23.73;;;;;;;6.08;100.00;103359.53;5085662;28;20363;-79
2024/01/31 09:18:47;;;;;;;47.45;23.10;;;;;;;6.13;100.00;103358.00;5080698;28;20033;-79
2024/01/31 09:21:21;;;;;;;51.13;22.70;;;;;;;6.17;100.00;103353.81;5084709;28;20563;-79
2024/01/31 09:23:47;;;;;;;50.03;24.35;;;;;;;6.22;100.00;103345.38;5082903;28;20520;-79
2024/01/31 09:26:12;;;;;;;50.72;23.58;;;;;;;6.25;100.00;103335.13;5084837;28;20036;-79
2024/01/31 09:28:38;;;;;;;47.20;23.25;;;;;;;6.32;100.00;103338.81;5084775;28;20078;-79
2024/01/31 09:31:03;;;;;;;50.25;23.55;;;;;;;6.24;100.00;103320.38;5081762;28;20483;-79
2024/01/31 09:33:28;;;;;;;48.58;23.65;;;;;;;6.33;100.00;103332.78;5077506;28;20039;-79
2024/01/31 09:35:54;;;;;;;49.20;25.27;;;;;;;6.37;100.00;103329.47;5083004;28;20033;-79
2024/01/31 09:38:19;;;;;;;51.05;25.00;;;;;;;6.39;100.00;103329.53;5083444;28;20143;-79
2024/01/31 09:40:45;;;;;;;52.22;23.48;;;;;;;6.47;100.00;103339.28;5086101;28;20025;-79
2024/01/31 09:43:10;;;;;;;48.67;24.48;;;;;;;6.48;100.00;103328.13;5080657;28;20407;-78
2024/01/31 09:45:38;;;;;;;50.38;25.15;;;;;;;6.45;100.00;103311.59;5075615;28;20036;-79
2024/01/31 09:48:04;;;;;;;46.83;24.50;;;;;;;6.59;100.00;103318.09;5079534;28;20020;-79
2024/01/31 09:50:30;;;;;;;45.38;23.83;;;;;;;6.65;100.00;103310.53;5081323;28;20033;-79
2024/01/31 09:52:57;;;;;;;46.85;23.63;;;;;;;6.76;100.00;103303.97;5087330;28;20021;-79
2024/01/31 09:55:26;;;;;;;46.17;23.95;;;;;;;6.79;100.00;103295.41;5078067;28;20032;-79
2024/01/31 09:57:51;;;;;;;42.95;23.33;;;;;;;6.90;100.00;103295.72;5088547;28;20032;-79
2024/01/31 10:00:17;;;;;;;42.25;21.98;;;;;;;7.03;100.00;103298.75;5081366;28;20485;-79
2024/01/31 10:02:47;;;;;;;41.80;22.20;;;;;;;7.08;100.00;103305.81;5088975;28;20111;-79
2024/01/31 10:05:13;;;;;;;36.00;19.02;;;;;;;7.07;100.00;103310.13;5081416;28;20380;-79
2024/01/31 10:07:41;;;;;;;37.97;19.15;;;;;;;7.12;100.00;103308.53;5089451;28;20039;-77
2024/01/31 10:10:07;;;;;;;36.45;20.67;;;;;;;7.19;100.00;103305.31;5078906;28;20153;-78
2024/01/31 10:12:32;;;;;;;36.45;19.50;;;;;;;7.23;100.00;103308.88;5083092;28;20015;-77
2024/01/31 10:14:57;;;;;;;33.72;19.40;;;;;;;7.30;100.00;103322.91;5084596;28;20146;-77
2024/01/31 10:17:23;;;;;;;31.33;18.38;;;;;;;7.28;100.00;103321.13;5075700;28;20155;-77
2024/01/31 10:19:49;;;;;;;33.85;18.83;;;;;;;7.26;100.00;103328.00;5083558;28;20471;-78
2024/01/31 10:22:15;;;;;;;29.10;18.77;;;;;;;7.28;100.00;103323.72;5080291;28;20096;-78
2024/01/31 10:24:45;;;;;;;31.83;18.70;;;;;;;7.28;100.00;103321.13;5077606;28;20476;-78
2024/01/31 10:27:10;;;;;;;31.30;17.98;;;;;;;7.25;100.00;103326.22;5083828;28;20063;-78
2024/01/31 10:29:37;;;;;;;29.83;17.92;;;;;;;7.27;100.00;103340.13;5084389;28;20055;-78
2024/01/31 10:32:03;;;;;;;28.05;17.23;;;;;;;7.25;100.00;103336.59;5082781;28;20024;-78
2024/01/31 10:34:29;;;;;;;30.73;16.70;;;;;;;7.24;100.00;103333.97;5077191;28;20398;-78
2024/01/31 10:36:55;;;;;;;25.38;14.95;;;;;;;7.22;100.00;103335.63;5081708;28;20047;-79
2024/01/31 10:39:21;;;;;;;26.60;15.75;;;;;;;7.20;100.00;103334.72;5080099;28;20488;-79
2024/01/31 10:41:49;;;;;;;27.80;15.85;;;;;;;7.14;100.00;103318.97;5080713;28;20142;-79
2024/01/31 10:44:14;;;;;;;25.42;14.95;;;;;;;7.16;100.00;103331.16;5082010;28;20477;-79
2024/01/31 10:46:41;;;;;;;23.75;14.38;;;;;;;7.12;100.00;103338.78;5079701;28;20175;-79
2024/01/31 10:49:06;;;;;;;24.42;14.55;;;;;;;7.09;100.00;103334.38;5076506;28;20511;-78
2024/01/31 10:51:34;;;;;;;20.38;14.07;;;;;;;7.02;100.00;103324.63;5080946;28;20047;-79
2024/01/31 10:54:01;;;;;;;22.20;14.02;;;;;;;7.00;100.00;103329.78;5077128;28;20040;-79
2024/01/31 10:56:27;;;;;;;24.88;14.38;;;;;;;6.99;100.00;103329.72;5075111;28;20028;-79
2024/01/31 10:58:56;;;;;;;20.92;13.68;;;;;;;6.91;100.00;103313.06;5072183;28;20078;-78
2024/01/31 11:01:27;;;;;;;26.15;14.98;;;;;;;6.95;100.00;103320.97;5080632;28;20440;-78
2024/01/31 11:03:53;;;;;;;23.30;14.57;;;;;;;6.94;100.00;103314.03;5080654;28;20028;-78
2024/01/31 11:06:20;;;;;;;22.90;15.75;;;;;;;6.96;100.00;103321.84;5075765;28;20027;-79